createdAt,value
2019-05-22T00:02:18.446Z,98.50
2019-05-22T00:04:51.644Z,98.50
2019-05-22T00:07:21.035Z,98.50
2019-05-22T00:09:52.306Z,98.40
2019-05-22T00:12:20.772Z,98.50
2019-05-22T00:14:50.913Z,98.50
2019-05-22T00:17:23.406Z,98.50
2019-05-22T00:19:52.417Z,98.60
2019-05-22T00:22:22.942Z,98.60
2019-05-22T00:24:52.617Z,98.70
2019-05-22T00:27:22.490Z,98.60
2019-05-22T00:29:54.121Z,98.70
2019-05-22T00:32:24.474Z,98.70
2019-05-22T00:34:55.142Z,98.80
2019-05-22T00:37:23.825Z,98.70
2019-05-22T00:39:52.764Z,98.60
2019-05-22T00:42:23.802Z,98.60
2019-05-22T00:44:54.370Z,98.60
2019-05-22T00:47:24.838Z,98.70
2019-05-22T00:49:55.900Z,98.80
2019-05-22T00:52:44.773Z,98.60
2019-05-22T00:55:24.215Z,98.70
2019-05-22T00:58:03.438Z,98.60
2019-05-22T01:00:35.688Z,98.80
2019-05-22T01:03:05.838Z,98.60
2019-05-22T01:05:36.561Z,98.50
2019-05-22T01:08:08.413Z,98.50
2019-05-22T01:10:38.596Z,98.50
2019-05-22T01:13:07.811Z,98.40
2019-05-22T01:15:38.444Z,98.30
2019-05-22T01:18:10.991Z,98.20
2019-05-22T01:20:42.337Z,98.30
2019-05-22T01:23:13.813Z,98.20
2019-05-22T01:25:43.028Z,98.10
2019-05-22T01:28:13.141Z,98.00
2019-05-22T01:30:43.645Z,98.00
2019-05-22T01:33:23.242Z,97.90
2019-05-22T01:35:56.034Z,97.90
2019-05-22T01:38:25.855Z,98.10
2019-05-22T01:41:05.550Z,98.20
2019-05-22T01:43:37.774Z,98.20
2019-05-22T01:46:06.224Z,98.10
2019-05-22T01:48:37.181Z,98.10
2019-05-22T01:51:07.393Z,98.10
2019-05-22T01:53:42.562Z,98.00
2019-05-22T01:56:12.888Z,97.80
2019-05-22T01:58:43.843Z,98.00
2019-05-22T02:01:19.092Z,97.90
2019-05-22T02:03:48.048Z,97.90
2019-05-22T02:06:19.403Z,97.70
2019-05-22T02:09:11.982Z,97.90
2019-05-22T02:11:42.483Z,97.80
2019-05-22T02:14:14.122Z,97.80
2019-05-22T02:16:56.212Z,97.80
2019-05-22T02:19:16.680Z,97.70
2019-05-22T02:21:45.734Z,97.40
2019-05-22T02:24:15.836Z,97.20
2019-05-22T02:26:45.554Z,97.20
2019-05-22T02:29:16.709Z,97.00
2019-05-22T02:31:45.155Z,96.90
2019-05-22T02:34:15.263Z,96.90
2019-05-22T02:36:45.389Z,97.00
2019-05-22T02:39:17.967Z,96.80
2019-05-22T02:41:53.062Z,96.80
2019-05-22T02:44:23.787Z,96.90
2019-05-22T02:46:53.381Z,96.70
2019-05-22T02:49:23.963Z,96.90
2019-05-22T02:51:54.076Z,96.90
2019-05-22T02:54:22.682Z,97.10
2019-05-22T02:56:51.656Z,96.90
2019-05-22T02:59:21.163Z,97.00
2019-05-22T03:01:49.687Z,96.80
2019-05-22T03:04:20.151Z,96.90
2019-05-22T03:06:51.110Z,96.80
2019-05-22T03:09:22.510Z,97.00
2019-05-22T03:12:01.500Z,97.10
2019-05-22T03:14:32.169Z,97.00
2019-05-22T03:17:04.775Z,96.90
2019-05-22T03:19:45.587Z,96.90
2019-05-22T03:22:29.008Z,97.00
2019-05-22T03:25:02.078Z,96.90
2019-05-22T03:27:45.241Z,97.00
2019-05-22T03:30:20.033Z,97.10
2019-05-22T03:32:49.260Z,97.00
2019-05-22T03:35:18.436Z,97.20
2019-05-22T03:37:47.552Z,97.00
2019-05-22T03:40:16.491Z,97.30
2019-05-22T03:42:46.283Z,97.10
2019-05-22T03:45:16.628Z,97.10
2019-05-22T03:47:45.169Z,96.80
2019-05-22T03:50:15.326Z,96.90
2019-05-22T03:52:44.338Z,96.80
2019-05-22T03:55:14.190Z,96.90
2019-05-22T03:57:44.743Z,96.90
2019-05-22T04:00:17.565Z,96.80
2019-05-22T04:02:49.123Z,96.90
2019-05-22T04:05:20.613Z,96.80
2019-05-22T04:07:49.944Z,96.60
2019-05-22T04:10:19.540Z,96.90
2019-05-22T04:12:50.038Z,96.60
2019-05-22T04:15:19.127Z,96.80
2019-05-22T04:17:48.628Z,97.00
2019-05-22T04:20:19.846Z,96.90
2019-05-22T04:22:51.002Z,96.80
2019-05-22T04:25:19.896Z,96.50
2019-05-22T04:27:48.444Z,96.40
2019-05-22T04:30:18.526Z,96.40
2019-05-22T04:32:48.454Z,96.50
2019-05-22T04:35:18.994Z,96.30
2019-05-22T04:37:49.569Z,96.40
2019-05-22T04:40:27.392Z,96.50
2019-05-22T04:43:00.207Z,96.40
2019-05-22T04:45:29.140Z,96.00
2019-05-22T04:48:01.363Z,95.90
2019-05-22T04:50:31.147Z,95.80
2019-05-22T04:53:00.893Z,96.00
2019-05-22T04:55:30.688Z,96.30
2019-05-22T04:58:01.924Z,96.10
2019-05-22T05:00:31.403Z,95.80
2019-05-22T05:03:00.805Z,95.50
2019-05-22T05:05:30.956Z,95.60
2019-05-22T05:08:00.738Z,95.40
2019-05-22T05:10:29.263Z,95.60
2019-05-22T05:12:59.489Z,95.20
2019-05-22T05:15:27.991Z,95.60
2019-05-22T05:17:56.471Z,94.90
2019-05-22T05:20:24.927Z,94.90
2019-05-22T05:22:53.728Z,95.00
2019-05-22T05:25:23.995Z,95.00
2019-05-22T05:27:52.534Z,95.10
2019-05-22T05:30:22.533Z,94.80
2019-05-22T05:32:51.536Z,94.70
2019-05-22T05:35:20.563Z,94.90
2019-05-22T05:37:49.764Z,95.10
2019-05-22T05:40:34.693Z,94.70
2019-05-22T05:43:05.560Z,94.00
2019-05-22T05:45:34.848Z,93.90
2019-05-22T05:48:06.314Z,93.80
2019-05-22T05:50:40.028Z,93.60
2019-05-22T05:53:08.956Z,93.50
2019-05-22T05:56:01.538Z,93.50
2019-05-22T05:58:32.406Z,94.00
2019-05-22T06:01:11.419Z,93.20
2019-05-22T06:03:40.627Z,93.80
2019-05-22T06:06:25.958Z,93.50
2019-05-22T06:08:56.635Z,92.70
2019-05-22T06:11:34.463Z,92.90
2019-05-22T06:14:06.422Z,93.10
2019-05-22T06:16:57.438Z,92.40
2019-05-22T06:19:28.508Z,92.30
2019-05-22T06:21:58.424Z,92.70
2019-05-22T06:24:36.905Z,91.40
2019-05-22T06:27:14.889Z,91.00
2019-05-22T06:29:52.928Z,91.40
2019-05-22T06:32:29.107Z,91.40
2019-05-22T06:34:59.782Z,91.20
2019-05-22T06:37:32.442Z,90.90
2019-05-22T06:40:01.643Z,90.90
2019-05-22T06:42:30.627Z,90.60
2019-05-22T06:44:59.146Z,91.20
2019-05-22T06:47:28.821Z,90.10
2019-05-22T06:49:57.364Z,90.10
2019-05-22T06:52:26.360Z,90.30
2019-05-22T06:54:55.518Z,90.40
2019-05-22T06:57:26.445Z,88.70
2019-05-22T07:00:12.346Z,89.20
2019-05-22T07:02:26.203Z,89.50
2019-05-22T07:04:55.296Z,89.90
2019-05-22T07:07:24.845Z,89.80
2019-05-22T07:09:53.376Z,89.10
2019-05-22T07:12:23.464Z,90.00
2019-05-22T07:15:00.707Z,88.60
2019-05-22T07:17:29.942Z,87.00
2019-05-22T07:19:59.524Z,86.20
2019-05-22T07:22:28.557Z,85.60
2019-05-22T07:24:57.942Z,86.60
2019-05-22T07:27:26.781Z,86.20
2019-05-22T07:29:56.120Z,85.70
2019-05-22T07:32:24.847Z,86.90
2019-05-22T07:34:53.611Z,86.00
2019-05-22T07:37:23.765Z,87.00
2019-05-22T07:39:52.314Z,85.10
2019-05-22T07:42:20.840Z,86.50
2019-05-22T07:44:49.410Z,85.80
2019-05-22T07:47:21.939Z,86.90
2019-05-22T07:49:50.358Z,85.90
2019-05-22T07:52:19.551Z,85.00
2019-05-22T07:54:49.136Z,86.50
2019-05-22T07:57:23.120Z,83.90
2019-05-22T07:59:52.699Z,84.20
2019-05-22T08:02:24.991Z,85.50
2019-05-22T08:04:53.796Z,86.40
2019-05-22T08:07:24.472Z,85.70
2019-05-22T08:09:53.548Z,86.50
2019-05-22T08:12:23.186Z,85.60
2019-05-22T08:14:52.564Z,85.40
2019-05-22T08:17:21.125Z,84.50
2019-05-22T08:19:49.585Z,85.20
2019-05-22T08:22:19.282Z,86.00
2019-05-22T08:24:48.106Z,87.20
2019-05-22T08:27:19.698Z,85.40
2019-05-22T08:29:49.007Z,84.30
2019-05-22T08:32:18.591Z,86.70
2019-05-22T08:34:47.571Z,85.60
2019-05-22T08:37:17.929Z,85.00
2019-05-22T08:39:47.115Z,85.70
2019-05-22T08:42:18.084Z,82.30
2019-05-22T08:44:47.318Z,82.30
2019-05-22T08:47:15.856Z,82.80
2019-05-22T08:49:44.636Z,82.60
2019-05-22T08:52:23.020Z,81.30
2019-05-22T08:54:46.311Z,81.50
2019-05-22T08:57:15.686Z,82.10
2019-05-22T08:59:44.769Z,83.10
2019-05-22T09:02:13.853Z,80.60
2019-05-22T09:04:42.353Z,81.00
2019-05-22T09:07:10.904Z,81.00
2019-05-22T09:09:39.395Z,79.60
2019-05-22T09:12:09.498Z,80.60
2019-05-22T09:14:38.257Z,79.60
2019-05-22T09:17:07.489Z,78.70
2019-05-22T09:19:36.825Z,80.00
2019-05-22T09:22:07.259Z,80.80
2019-05-22T09:24:38.628Z,79.70
2019-05-22T09:27:09.026Z,77.80
2019-05-22T09:29:37.846Z,76.90
2019-05-22T09:32:07.396Z,78.70
2019-05-22T09:34:37.023Z,79.40
2019-05-22T09:37:05.545Z,79.30
2019-05-22T09:39:34.524Z,80.10
2019-05-22T09:42:02.969Z,78.90
2019-05-22T09:44:31.474Z,78.70
2019-05-22T09:47:00.262Z,78.10
2019-05-22T09:49:29.666Z,78.00
2019-05-22T09:51:58.668Z,75.60
2019-05-22T09:54:27.749Z,74.50
2019-05-22T09:56:56.557Z,76.40
2019-05-22T09:59:25.170Z,75.50
2019-05-22T10:01:55.259Z,75.90
2019-05-22T10:04:24.329Z,76.70
2019-05-22T10:06:52.838Z,75.00
2019-05-22T10:09:21.738Z,77.30
2019-05-22T10:11:50.269Z,76.40
2019-05-22T10:14:19.837Z,74.80
2019-05-22T10:16:48.932Z,71.30
2019-05-22T10:19:17.645Z,73.60
2019-05-22T10:21:48.621Z,73.10
2019-05-22T10:24:19.543Z,71.60
2019-05-22T10:26:48.805Z,68.40
2019-05-22T10:29:17.866Z,70.00
2019-05-22T10:31:46.461Z,71.40
2019-05-22T10:34:15.357Z,71.90
2019-05-22T10:36:44.428Z,70.50
2019-05-22T10:39:13.178Z,74.10
2019-05-22T10:41:42.502Z,66.40
2019-05-22T10:44:11.835Z,66.80
2019-05-22T10:46:40.760Z,66.00
2019-05-22T10:49:09.212Z,67.80
2019-05-22T10:51:39.686Z,69.60
2019-05-22T10:54:08.738Z,67.40
2019-05-22T10:56:37.206Z,71.10
2019-05-22T10:59:07.410Z,70.60
2019-05-22T11:01:37.719Z,71.60
2019-05-22T11:04:07.584Z,68.30
2019-05-22T11:06:36.247Z,68.60
2019-05-22T11:09:07.234Z,73.50
2019-05-22T11:11:35.974Z,69.60
2019-05-22T11:14:09.351Z,67.20
2019-05-22T11:16:36.412Z,69.30
2019-05-22T11:19:05.966Z,67.70
2019-05-22T11:21:36.127Z,69.50
2019-05-22T11:24:08.926Z,68.40
2019-05-22T11:26:37.590Z,69.10
2019-05-22T11:29:07.254Z,69.40
2019-05-22T11:31:36.729Z,68.60
2019-05-22T11:34:05.984Z,70.70
2019-05-22T11:36:35.245Z,70.30
2019-05-22T11:39:05.541Z,70.20
2019-05-22T11:41:35.081Z,69.50
2019-05-22T11:44:04.416Z,71.00
2019-05-22T11:46:33.045Z,65.30
2019-05-22T11:49:01.602Z,65.00
2019-05-22T11:51:30.128Z,66.80
2019-05-22T11:54:08.755Z,68.20
2019-05-22T11:56:30.402Z,68.80
2019-05-22T11:59:00.367Z,67.80
2019-05-22T12:01:28.958Z,68.40
2019-05-22T12:03:59.388Z,66.40
2019-05-22T12:06:29.882Z,66.40
2019-05-22T12:08:58.431Z,66.20
2019-05-22T12:11:29.628Z,66.20
2019-05-22T12:13:58.795Z,69.70
2019-05-22T12:16:28.276Z,66.80
2019-05-22T12:18:59.096Z,66.40
2019-05-22T12:21:28.651Z,66.30
2019-05-22T12:23:58.037Z,66.20
2019-05-22T12:26:26.601Z,64.60
2019-05-22T12:28:55.251Z,67.00
2019-05-22T12:31:24.565Z,65.60
2019-05-22T12:33:53.628Z,65.50
2019-05-22T12:36:24.930Z,64.80
2019-05-22T12:38:54.719Z,62.90
2019-05-22T12:41:23.848Z,61.60
2019-05-22T12:43:53.994Z,61.20
2019-05-22T12:46:23.296Z,61.50
2019-05-22T12:48:53.436Z,62.30
2019-05-22T12:51:21.919Z,61.50
2019-05-22T12:53:50.511Z,64.60
2019-05-22T12:56:19.573Z,61.90
2019-05-22T12:58:49.000Z,62.30
2019-05-22T13:01:18.634Z,64.40
2019-05-22T13:03:49.177Z,64.40
2019-05-22T13:06:18.016Z,61.50
2019-05-22T13:08:46.909Z,62.60
2019-05-22T13:11:16.429Z,59.80
2019-05-22T13:13:45.982Z,59.60
2019-05-22T13:16:15.077Z,62.40
2019-05-22T13:18:44.867Z,62.90
2019-05-22T13:21:15.446Z,60.70
2019-05-22T13:23:45.717Z,57.00
2019-05-22T13:26:15.854Z,56.50
2019-05-22T13:28:46.981Z,58.70
2019-05-22T13:31:17.037Z,62.70
2019-05-22T13:33:46.809Z,64.90
2019-05-22T13:36:18.581Z,66.50
2019-05-22T13:38:47.979Z,65.60
2019-05-22T13:41:16.966Z,67.60
2019-05-22T13:43:45.429Z,66.20
2019-05-22T13:46:15.531Z,66.90
2019-05-22T13:48:44.062Z,64.60
2019-05-22T13:51:14.015Z,63.00
2019-05-22T13:53:43.056Z,61.90
2019-05-22T13:56:12.148Z,64.40
2019-05-22T13:58:42.227Z,68.40
2019-05-22T14:01:10.959Z,68.40
2019-05-22T14:03:40.425Z,66.00
2019-05-22T14:06:09.666Z,60.30
2019-05-22T14:08:38.196Z,58.10
2019-05-22T14:11:08.089Z,60.10
2019-05-22T14:13:54.898Z,61.40
2019-05-22T14:16:25.787Z,63.90
2019-05-22T14:18:54.248Z,64.40
2019-05-22T14:21:22.774Z,60.90
2019-05-22T14:23:51.655Z,55.80
2019-05-22T14:26:21.500Z,52.80
2019-05-22T14:28:51.050Z,53.80
2019-05-22T14:31:19.775Z,50.40
2019-05-22T14:33:48.469Z,51.40
2019-05-22T14:36:17.459Z,47.70
2019-05-22T14:38:46.006Z,47.60
2019-05-22T14:41:15.990Z,45.60
2019-05-22T14:43:44.711Z,46.20
2019-05-22T14:46:13.432Z,48.00
2019-05-22T14:48:43.037Z,49.40
2019-05-22T14:51:12.311Z,52.00
2019-05-22T14:53:41.770Z,53.60
2019-05-22T14:56:11.602Z,56.90
2019-05-22T14:58:41.655Z,56.70
2019-05-22T15:01:11.028Z,50.40
2019-05-22T15:03:40.023Z,46.70
2019-05-22T15:06:09.528Z,45.60
2019-05-22T15:08:44.497Z,42.10
2019-05-22T15:11:13.164Z,40.50
2019-05-22T15:13:41.890Z,39.60
2019-05-22T15:16:11.421Z,39.60
2019-05-22T15:18:40.374Z,37.70
2019-05-22T15:21:09.397Z,41.20
2019-05-22T15:23:48.437Z,40.70
2019-05-22T15:26:17.251Z,40.80
2019-05-22T15:28:46.532Z,40.60
2019-05-22T15:31:15.155Z,40.50
2019-05-22T15:33:44.846Z,41.40
2019-05-22T15:36:16.979Z,39.60
2019-05-22T15:38:47.421Z,39.30
2019-05-22T15:41:16.259Z,38.50
2019-05-22T15:43:50.411Z,40.70
2019-05-22T15:46:16.920Z,41.40
2019-05-22T15:48:47.493Z,40.60
2019-05-22T15:51:19.281Z,45.00
2019-05-22T15:53:48.043Z,48.30
2019-05-22T15:56:18.237Z,51.40
2019-05-22T15:58:49.789Z,53.20
2019-05-22T16:01:21.760Z,48.40
2019-05-22T16:03:51.919Z,45.60
2019-05-22T16:06:23.337Z,43.40
2019-05-22T16:08:54.029Z,42.20
2019-05-22T16:11:25.393Z,43.40
2019-05-22T16:14:06.361Z,40.60
2019-05-22T16:16:36.390Z,41.90
2019-05-22T16:19:08.063Z,41.90
2019-05-22T16:21:40.371Z,42.30
2019-05-22T16:24:11.663Z,45.40
2019-05-22T16:26:41.206Z,46.00
2019-05-22T16:29:10.997Z,44.20
2019-05-22T16:31:42.566Z,44.20
2019-05-22T16:34:13.141Z,45.70
2019-05-22T16:36:42.972Z,45.00
2019-05-22T16:39:13.023Z,43.80
2019-05-22T16:41:43.011Z,44.20
2019-05-22T16:44:20.528Z,45.40
2019-05-22T16:46:49.820Z,45.20
2019-05-22T16:49:18.760Z,45.30
2019-05-22T16:51:48.673Z,45.50
2019-05-22T16:54:25.699Z,47.20
2019-05-22T16:56:55.088Z,48.10
2019-05-22T16:59:23.565Z,48.50
2019-05-22T17:01:59.565Z,51.80
2019-05-22T17:04:24.109Z,49.20
2019-05-22T17:06:53.296Z,48.40
2019-05-22T17:09:21.809Z,48.20
2019-05-22T17:11:51.628Z,50.90
2019-05-22T17:14:21.626Z,49.50
2019-05-22T17:16:50.823Z,50.90
2019-05-22T17:19:27.012Z,49.60
2019-05-22T17:21:49.945Z,51.00
2019-05-22T17:24:21.280Z,52.00
2019-05-22T17:26:50.159Z,53.60
2019-05-22T17:29:19.154Z,52.50
2019-05-22T17:31:47.931Z,54.80
2019-05-22T17:34:33.622Z,54.40
2019-05-22T17:37:06.193Z,53.40
2019-05-22T17:39:36.815Z,54.60
2019-05-22T17:42:07.879Z,55.20
2019-05-22T17:44:38.043Z,54.50
2019-05-22T17:47:08.276Z,55.10
2019-05-22T17:49:37.050Z,55.40
2019-05-22T17:52:05.627Z,54.30
2019-05-22T17:54:34.225Z,55.50
2019-05-22T17:57:04.093Z,56.70
2019-05-22T17:59:32.572Z,57.40
2019-05-22T18:02:01.844Z,59.30
2019-05-22T18:04:30.471Z,59.60
2019-05-22T18:06:59.108Z,61.20
2019-05-22T18:09:27.848Z,62.00
2019-05-22T18:11:56.584Z,61.60
2019-05-22T18:14:25.657Z,62.70
2019-05-22T18:17:00.305Z,62.80
2019-05-22T18:19:29.159Z,63.50
2019-05-22T18:21:57.711Z,64.00
2019-05-22T18:24:26.644Z,64.60
2019-05-22T18:26:55.468Z,65.60
2019-05-22T18:29:24.233Z,66.40
2019-05-22T18:31:53.086Z,67.10
2019-05-22T18:34:21.564Z,67.40
2019-05-22T18:36:50.530Z,67.70
2019-05-22T18:39:19.538Z,68.20
2019-05-22T18:41:47.975Z,69.10
2019-05-22T18:44:16.473Z,69.60
2019-05-22T18:46:44.996Z,69.70
2019-05-22T18:49:13.466Z,70.30
2019-05-22T18:51:42.220Z,70.90
2019-05-22T18:54:10.685Z,71.40
2019-05-22T18:56:39.212Z,71.90
2019-05-22T18:59:08.407Z,72.30
2019-05-22T19:01:36.859Z,72.80
2019-05-22T19:04:05.490Z,73.10
2019-05-22T19:06:34.005Z,73.60
2019-05-22T19:09:02.897Z,74.10
2019-05-22T19:11:31.775Z,75.00
2019-05-22T19:14:00.366Z,75.20
2019-05-22T19:16:29.173Z,75.40
2019-05-22T19:18:57.815Z,76.50
2019-05-22T19:21:26.610Z,76.50
2019-05-22T19:23:55.089Z,76.50
2019-05-22T19:26:23.876Z,76.20
2019-05-22T19:28:52.598Z,76.90
2019-05-22T19:31:21.151Z,77.40
2019-05-22T19:33:49.586Z,77.90
2019-05-22T19:36:18.716Z,78.50
2019-05-22T19:38:47.238Z,79.30
2019-05-22T19:41:16.463Z,79.50
2019-05-22T19:43:44.978Z,80.10
2019-05-22T19:46:13.868Z,80.20
2019-05-22T19:48:43.365Z,80.10
2019-05-22T19:51:14.950Z,81.00
2019-05-22T19:53:43.665Z,81.10
2019-05-22T19:56:12.846Z,81.40
2019-05-22T19:58:41.828Z,82.20
2019-05-22T20:01:13.351Z,82.70
2019-05-22T20:03:42.309Z,82.80
2019-05-22T20:06:11.570Z,82.90
2019-05-22T20:08:40.454Z,83.10
2019-05-22T20:11:09.428Z,83.40
2019-05-22T20:13:38.521Z,83.80
2019-05-22T20:16:07.013Z,84.10
2019-05-22T20:18:35.910Z,84.30
2019-05-22T20:21:04.442Z,84.40
2019-05-22T20:23:36.396Z,84.50
2019-05-22T20:26:03.533Z,84.90
2019-05-22T20:28:32.003Z,85.10
2019-05-22T20:31:00.540Z,85.30
2019-05-22T20:33:29.026Z,85.70
2019-05-22T20:36:00.550Z,86.30
2019-05-22T20:38:29.069Z,86.50
2019-05-22T20:40:58.445Z,87.40
2019-05-22T20:43:27.954Z,88.20
2019-05-22T20:45:58.344Z,88.60
2019-05-22T20:48:29.780Z,88.60
2019-05-22T20:50:59.965Z,89.10
2019-05-22T20:53:31.112Z,89.90
2019-05-22T20:56:00.187Z,90.10
2019-05-22T20:58:30.743Z,90.10
2019-05-22T21:01:00.903Z,90.20
2019-05-22T21:03:31.829Z,90.60
2019-05-22T21:06:05.472Z,90.80
2019-05-22T21:08:33.929Z,90.80
2019-05-22T21:11:03.238Z,91.00
2019-05-22T21:13:31.882Z,91.50
2019-05-22T21:16:01.072Z,91.50
2019-05-22T21:18:31.896Z,91.50
2019-05-22T21:21:00.893Z,91.70
2019-05-22T21:23:30.430Z,92.00
2019-05-22T21:25:59.014Z,92.10
2019-05-22T21:28:28.110Z,92.10
2019-05-22T21:30:57.626Z,92.30
2019-05-22T21:33:26.627Z,92.40
2019-05-22T21:35:55.540Z,92.40
2019-05-22T21:38:25.099Z,92.50
2019-05-22T21:40:56.574Z,92.60
2019-05-22T21:43:25.101Z,92.70
2019-05-22T21:45:53.974Z,92.60
2019-05-22T21:48:24.519Z,92.80
2019-05-22T21:50:52.971Z,92.90
2019-05-22T21:53:21.875Z,92.80
2019-05-22T21:56:03.635Z,92.70
2019-05-22T21:58:21.430Z,92.70
2019-05-22T22:00:56.800Z,92.70
2019-05-22T22:03:29.504Z,92.70
2019-05-22T22:05:59.484Z,92.80
2019-05-22T22:08:29.351Z,93.00
2019-05-22T22:10:58.540Z,93.10
2019-05-22T22:13:27.912Z,93.20
2019-05-22T22:15:56.446Z,93.20
2019-05-22T22:18:25.939Z,93.30
2019-05-22T22:20:56.409Z,93.20
2019-05-22T22:23:25.491Z,93.30
2019-05-22T22:25:54.094Z,93.40
2019-05-22T22:28:24.770Z,93.50
2019-05-22T22:31:12.208Z,93.50
2019-05-22T22:33:42.175Z,93.60
2019-05-22T22:36:11.285Z,93.70
2019-05-22T22:38:39.741Z,93.70
2019-05-22T22:41:09.925Z,93.80
2019-05-22T22:43:40.784Z,93.70
2019-05-22T22:46:22.744Z,93.70
2019-05-22T22:48:53.313Z,93.80
2019-05-22T22:51:24.666Z,93.90
2019-05-22T22:53:55.132Z,94.00
2019-05-22T22:56:25.694Z,94.30
2019-05-22T22:58:54.606Z,94.20
2019-05-22T23:01:27.778Z,94.20
2019-05-22T23:03:59.903Z,94.30
2019-05-22T23:06:28.341Z,94.30
2019-05-22T23:08:57.351Z,94.40
2019-05-22T23:11:27.568Z,94.50
2019-05-22T23:13:57.306Z,94.70
2019-05-22T23:16:27.502Z,94.50
2019-05-22T23:19:15.817Z,94.40
2019-05-22T23:21:44.908Z,94.50
2019-05-22T23:24:14.020Z,94.60
2019-05-22T23:26:43.632Z,94.40
2019-05-22T23:29:12.588Z,94.40
2019-05-22T23:31:41.284Z,94.20
2019-05-22T23:34:10.410Z,93.90
2019-05-22T23:36:39.306Z,93.90
2019-05-22T23:39:12.947Z,93.90
2019-05-22T23:41:43.439Z,94.00
2019-05-22T23:44:13.705Z,94.00
2019-05-22T23:46:42.965Z,93.90
2019-05-22T23:49:12.912Z,94.00
2019-05-22T23:51:42.168Z,94.00
2019-05-22T23:54:10.696Z,94.20
2019-05-22T23:56:40.616Z,94.40
2019-05-22T23:59:10.723Z,94.50
